createdAt,value
2023-03-21T00:01:53.790Z,64.02
2023-03-21T00:04:24.220Z,64.13
2023-03-21T00:06:53.184Z,64.11
2023-03-21T00:09:21.564Z,64.12
2023-03-21T00:11:52.248Z,64.20
2023-03-21T00:14:21.271Z,64.19
2023-03-21T00:16:51.109Z,64.23
2023-03-21T00:19:29.850Z,64.22
2023-03-21T00:22:07.882Z,64.12
2023-03-21T00:24:37.435Z,64.17
2023-03-21T00:29:57.446Z,64.27
2023-03-21T00:32:33.957Z,64.32
2023-03-21T00:35:34.520Z,64.45
2023-03-21T00:37:56.221Z,64.42
2023-03-21T00:40:29.349Z,64.51
2023-03-21T00:42:59.582Z,64.50
2023-03-21T00:45:28.550Z,64.42
2023-03-21T00:47:57.062Z,64.52
2023-03-21T00:50:25.679Z,64.53
2023-03-21T00:52:54.213Z,64.45
2023-03-21T00:55:23.852Z,64.31
2023-03-21T00:58:01.134Z,64.43
2023-03-21T01:00:30.570Z,64.46
2023-03-21T01:03:17.634Z,64.47
2023-03-21T01:06:04.890Z,64.40
2023-03-21T01:08:48.677Z,64.30
2023-03-21T01:11:21.448Z,64.41
2023-03-21T01:14:21.035Z,64.40
2023-03-21T01:16:37.810Z,64.35
2023-03-21T01:19:09.422Z,64.41
2023-03-21T01:21:43.504Z,64.38
2023-03-21T01:24:11.855Z,64.39
2023-03-21T01:26:40.140Z,64.42
2023-03-21T01:29:08.520Z,64.60
2023-03-21T01:31:36.735Z,64.85
2023-03-21T01:34:05.731Z,65.00
2023-03-21T01:36:34.007Z,65.07
2023-03-21T01:39:06.809Z,65.25
2023-03-21T01:41:42.892Z,65.22
2023-03-21T01:44:31.064Z,65.27
2023-03-21T01:47:15.434Z,65.21
2023-03-21T01:50:02.688Z,65.12
2023-03-21T01:52:47.103Z,65.10
2023-03-21T01:55:18.076Z,65.21
2023-03-21T01:58:05.211Z,65.28
2023-03-21T02:00:43.852Z,65.09
2023-03-21T02:03:34.980Z,65.16
2023-03-21T02:06:30.518Z,65.13
2023-03-21T02:09:02.718Z,65.20
2023-03-21T02:11:32.736Z,65.25
2023-03-21T02:14:06.745Z,65.24
2023-03-21T02:16:52.962Z,65.09
2023-03-21T02:19:35.663Z,65.04
2023-03-21T02:22:29.935Z,65.23
2023-03-21T02:25:21.329Z,65.26
2023-03-21T02:28:17.658Z,65.22
2023-03-21T02:31:05.058Z,65.31
2023-03-21T02:33:40.555Z,65.35
2023-03-21T02:36:18.007Z,65.43
2023-03-21T02:38:47.775Z,65.44
2023-03-21T02:41:21.293Z,65.59
2023-03-21T02:43:56.559Z,65.67
2023-03-21T02:46:45.397Z,65.92
2023-03-21T02:49:22.192Z,66.16
2023-03-21T02:51:50.681Z,66.36
2023-03-21T02:54:34.980Z,66.60
2023-03-21T02:57:07.625Z,66.85
2023-03-21T02:59:44.364Z,67.01
2023-03-21T03:02:17.286Z,67.22
2023-03-21T03:04:48.106Z,67.45
2023-03-21T03:07:22.017Z,67.58
2023-03-21T03:10:00.942Z,67.76
2023-03-21T03:12:33.931Z,67.77
2023-03-21T03:15:18.106Z,67.82
2023-03-21T03:17:51.181Z,67.88
2023-03-21T03:20:28.451Z,67.91
2023-03-21T03:23:06.145Z,68.19
2023-03-21T03:25:49.162Z,68.51
2023-03-21T03:28:18.898Z,68.63
2023-03-21T03:31:04.942Z,68.62
2023-03-21T03:33:38.210Z,68.66
2023-03-21T03:36:07.890Z,68.75
2023-03-21T03:38:37.490Z,68.78
2023-03-21T03:41:15.893Z,68.76
2023-03-21T03:43:53.029Z,68.86
2023-03-21T03:46:29.270Z,68.98
2023-03-21T03:49:00.905Z,69.12
2023-03-21T03:51:30.408Z,69.16
2023-03-21T03:54:24.270Z,69.20
2023-03-21T03:56:52.569Z,69.30
2023-03-21T03:59:25.268Z,69.26
2023-03-21T04:02:12.550Z,69.23
2023-03-21T04:04:42.026Z,69.42
2023-03-21T04:07:11.268Z,69.48
2023-03-21T04:09:45.042Z,69.58
2023-03-21T04:12:18.468Z,69.71
2023-03-21T04:15:10.960Z,69.80
2023-03-21T04:17:42.768Z,69.95
2023-03-21T04:20:18.474Z,70.05
2023-03-21T04:22:52.660Z,70.02
2023-03-21T04:25:32.345Z,70.06
2023-03-21T04:28:02.100Z,70.07
2023-03-21T04:30:36.267Z,70.13
2023-03-21T04:33:16.775Z,70.20
2023-03-21T04:35:59.545Z,70.20
2023-03-21T04:38:31.630Z,70.26
2023-03-21T04:41:03.647Z,70.33
2023-03-21T04:43:38.645Z,70.43
2023-03-21T04:46:07.419Z,70.61
2023-03-21T04:48:35.739Z,70.74
2023-03-21T04:51:07.072Z,70.92
2023-03-21T04:53:35.564Z,70.87
2023-03-21T04:56:04.962Z,70.88
2023-03-21T04:58:33.649Z,70.79
2023-03-21T05:01:02.720Z,70.68
2023-03-21T05:03:40.331Z,70.48
2023-03-21T05:06:09.141Z,70.42
2023-03-21T05:08:37.255Z,70.36
2023-03-21T05:11:05.703Z,70.42
2023-03-21T05:13:35.326Z,70.42
2023-03-21T05:16:03.599Z,70.34
2023-03-21T05:18:34.904Z,70.14
2023-03-21T05:21:10.537Z,70.06
2023-03-21T05:23:42.561Z,69.97
2023-03-21T05:26:10.940Z,69.83
2023-03-21T05:28:45.425Z,69.69
2023-03-21T05:31:16.966Z,69.53
2023-03-21T05:33:46.338Z,69.47
2023-03-21T05:36:25.244Z,69.45
2023-03-21T05:38:53.637Z,69.40
2023-03-21T05:41:22.745Z,69.30
2023-03-21T05:43:50.843Z,69.08
2023-03-21T05:46:19.153Z,68.87
2023-03-21T05:48:48.909Z,68.60
2023-03-21T05:51:19.338Z,68.44
2023-03-21T05:53:47.624Z,68.30
2023-03-21T05:56:18.566Z,68.06
2023-03-21T05:58:53.368Z,67.81
2023-03-21T06:01:23.729Z,67.57
2023-03-21T06:03:56.935Z,67.25
2023-03-21T06:06:28.238Z,67.06
2023-03-21T06:08:57.676Z,66.83
2023-03-21T06:11:27.412Z,66.53
2023-03-21T06:14:17.231Z,66.40
2023-03-21T06:16:46.573Z,66.25
2023-03-21T06:19:14.850Z,65.82
2023-03-21T06:22:06.271Z,64.67
2023-03-21T06:24:36.494Z,63.01
2023-03-21T06:27:05.122Z,61.57
2023-03-21T06:29:44.098Z,59.75
2023-03-21T06:32:12.835Z,57.87
2023-03-21T06:34:41.787Z,55.74
2023-03-21T06:37:18.770Z,53.25
2023-03-21T06:39:47.460Z,50.42
2023-03-21T06:42:16.076Z,46.86
2023-03-21T06:44:44.807Z,43.30
2023-03-21T06:47:16.023Z,40.44
2023-03-21T06:49:45.946Z,38.29
2023-03-21T06:52:15.872Z,36.86
2023-03-21T06:54:45.442Z,35.53
2023-03-21T06:57:22.236Z,34.26
2023-03-21T06:59:51.172Z,33.08
2023-03-21T07:02:21.974Z,31.90
2023-03-21T07:05:04.862Z,31.11
2023-03-21T07:07:33.059Z,30.00
2023-03-21T07:10:10.801Z,30.05
2023-03-21T07:12:46.489Z,29.96
2023-03-21T07:15:22.572Z,28.92
2023-03-21T07:17:51.232Z,28.43
2023-03-21T07:20:19.747Z,28.29
2023-03-21T07:22:48.270Z,28.58
2023-03-21T07:25:20.842Z,28.80
2023-03-21T07:27:51.328Z,29.33
2023-03-21T07:30:19.445Z,29.71
2023-03-21T07:32:47.878Z,31.13
2023-03-21T07:35:17.034Z,33.49
2023-03-21T07:37:49.061Z,35.75
2023-03-21T07:40:18.076Z,37.85
2023-03-21T07:42:46.195Z,39.96
2023-03-21T07:45:21.989Z,42.12
2023-03-21T07:47:50.500Z,44.14
2023-03-21T07:50:19.371Z,45.73
2023-03-21T07:52:50.050Z,46.49
2023-03-21T07:55:18.397Z,47.47
2023-03-21T07:57:46.968Z,48.20
2023-03-21T08:00:23.333Z,48.69
2023-03-21T08:02:58.559Z,49.00
2023-03-21T08:05:37.254Z,49.20
2023-03-21T08:08:06.423Z,49.37
2023-03-21T08:10:34.682Z,49.71
2023-03-21T08:13:08.248Z,49.75
2023-03-21T08:15:38.051Z,49.89
2023-03-21T08:18:07.033Z,50.06
2023-03-21T08:20:37.696Z,50.19
2023-03-21T08:23:05.900Z,50.22
2023-03-21T08:25:33.883Z,50.33
2023-03-21T08:28:01.925Z,50.34
2023-03-21T08:30:30.336Z,50.35
2023-03-21T08:33:01.224Z,50.48
2023-03-21T08:35:32.263Z,50.39
2023-03-21T08:38:02.958Z,50.34
2023-03-21T08:40:32.614Z,50.13
2023-03-21T08:43:00.943Z,49.92
2023-03-21T08:45:30.005Z,49.78
2023-03-21T08:48:02.672Z,49.61
2023-03-21T08:50:31.941Z,49.45
2023-03-21T08:53:00.321Z,49.27
2023-03-21T08:55:28.525Z,48.97
2023-03-21T08:58:09.302Z,48.87
2023-03-21T09:00:39.400Z,48.81
2023-03-21T09:03:07.846Z,48.52
2023-03-21T09:05:37.094Z,48.18
2023-03-21T09:08:05.632Z,48.17
2023-03-21T09:10:34.094Z,48.01
2023-03-21T09:13:02.734Z,47.86
2023-03-21T09:15:31.769Z,47.58
2023-03-21T09:18:13.663Z,47.23
2023-03-21T09:20:47.810Z,47.12
2023-03-21T09:23:15.964Z,46.89
2023-03-21T09:25:46.495Z,46.85
2023-03-21T09:28:14.454Z,47.00
2023-03-21T09:30:43.046Z,46.69
2023-03-21T09:33:19.879Z,46.57
2023-03-21T09:35:50.752Z,46.56
2023-03-21T09:38:20.100Z,46.35
2023-03-21T09:40:57.587Z,46.23
2023-03-21T09:43:47.925Z,46.22
2023-03-21T09:46:18.777Z,46.23
2023-03-21T09:48:57.253Z,46.25
2023-03-21T09:51:33.758Z,45.98
2023-03-21T09:54:03.994Z,45.85
2023-03-21T09:56:32.205Z,45.81
2023-03-21T09:59:00.705Z,45.14
2023-03-21T10:01:33.220Z,44.65
2023-03-21T10:04:06.049Z,44.66
2023-03-21T10:06:39.466Z,44.62
2023-03-21T10:09:09.786Z,44.56
2023-03-21T10:11:41.694Z,44.40
2023-03-21T10:14:15.930Z,44.38
2023-03-21T10:16:45.030Z,44.20
2023-03-21T10:19:14.169Z,44.07
2023-03-21T10:22:00.809Z,43.91
2023-03-21T10:24:31.741Z,43.56
2023-03-21T10:27:00.124Z,43.54
2023-03-21T10:29:29.244Z,43.54
2023-03-21T10:31:57.299Z,43.45
2023-03-21T10:34:52.536Z,43.38
2023-03-21T10:37:20.504Z,43.33
2023-03-21T10:40:06.334Z,43.05
2023-03-21T10:42:37.167Z,42.98
2023-03-21T10:45:05.358Z,43.01
2023-03-21T10:47:35.219Z,42.84
2023-03-21T10:50:08.184Z,42.75
2023-03-21T10:52:49.749Z,42.66
2023-03-21T10:55:17.871Z,42.38
2023-03-21T10:57:48.951Z,42.26
2023-03-21T11:00:24.034Z,41.97
2023-03-21T11:03:05.680Z,42.24
2023-03-21T11:05:37.810Z,42.07
2023-03-21T11:08:07.736Z,41.92
2023-03-21T11:10:38.470Z,41.86
2023-03-21T11:13:17.877Z,41.94
2023-03-21T11:15:58.409Z,41.85
2023-03-21T11:18:31.630Z,41.74
2023-03-21T11:21:04.160Z,41.76
2023-03-21T11:26:36.791Z,41.52
2023-03-21T11:29:31.637Z,41.59
2023-03-21T11:32:02.812Z,41.77
2023-03-21T11:34:38.699Z,41.77
2023-03-21T11:37:16.960Z,41.84
2023-03-21T11:39:45.753Z,41.89
2023-03-21T11:42:31.513Z,41.91
2023-03-21T11:45:04.990Z,41.97
2023-03-21T11:47:33.161Z,41.70
2023-03-21T11:50:05.272Z,41.62
2023-03-21T11:52:39.251Z,41.73
2023-03-21T11:55:07.763Z,41.86
2023-03-21T11:57:56.254Z,41.84
2023-03-21T12:00:26.957Z,41.55
2023-03-21T12:03:09.563Z,41.37
2023-03-21T12:05:39.603Z,40.77
2023-03-21T12:08:17.847Z,40.06
2023-03-21T12:11:13.118Z,40.14
2023-03-21T12:13:44.438Z,40.30
2023-03-21T12:16:30.998Z,40.26
2023-03-21T12:19:09.552Z,40.23
2023-03-21T12:21:44.285Z,40.33
2023-03-21T12:24:14.581Z,40.50
2023-03-21T12:26:54.716Z,40.73
2023-03-21T12:29:30.404Z,40.76
2023-03-21T12:32:14.379Z,40.62
2023-03-21T12:34:42.804Z,40.12
2023-03-21T12:37:29.717Z,39.67
2023-03-21T12:40:09.656Z,39.38
2023-03-21T12:42:50.452Z,39.45
2023-03-21T12:45:20.325Z,38.94
2023-03-21T12:47:51.666Z,39.02
2023-03-21T12:50:24.838Z,39.00
2023-03-21T12:52:58.997Z,38.72
2023-03-21T12:55:28.413Z,38.52
2023-03-21T12:57:57.774Z,38.65
2023-03-21T13:00:28.996Z,38.70
2023-03-21T13:03:04.099Z,38.62
2023-03-21T13:05:36.042Z,38.65
2023-03-21T13:08:04.359Z,38.53
2023-03-21T13:10:32.557Z,38.56
2023-03-21T13:13:07.819Z,38.54
2023-03-21T13:15:48.518Z,38.65
2023-03-21T13:18:23.271Z,38.61
2023-03-21T13:20:55.431Z,38.62
2023-03-21T13:23:24.706Z,38.88
2023-03-21T13:25:53.338Z,38.94
2023-03-21T13:28:28.914Z,39.02
2023-03-21T13:31:16.253Z,38.99
2023-03-21T13:33:48.585Z,39.00
2023-03-21T13:36:18.722Z,38.93
2023-03-21T13:38:51.228Z,38.68
2023-03-21T13:41:20.747Z,38.72
2023-03-21T13:43:55.927Z,38.89
2023-03-21T13:46:34.107Z,38.82
2023-03-21T13:49:10.754Z,38.71
2023-03-21T13:51:52.213Z,38.85
2023-03-21T13:54:29.815Z,38.94
2023-03-21T13:57:00.979Z,39.06
2023-03-21T13:59:36.505Z,39.25
2023-03-21T14:02:24.755Z,39.32
2023-03-21T14:05:05.431Z,39.55
2023-03-21T14:07:41.241Z,39.61
2023-03-21T14:10:20.504Z,39.70
2023-03-21T14:12:48.999Z,39.75
2023-03-21T14:15:20.003Z,39.87
2023-03-21T14:17:51.285Z,39.91
2023-03-21T14:20:23.933Z,40.08
2023-03-21T14:22:52.394Z,40.20
2023-03-21T14:25:21.075Z,40.33
2023-03-21T14:27:50.437Z,40.44
2023-03-21T14:30:23.035Z,40.46
2023-03-21T14:32:51.238Z,40.70
2023-03-21T14:35:19.342Z,40.73
2023-03-21T14:37:48.064Z,40.79
2023-03-21T14:40:21.675Z,40.83
2023-03-21T14:42:50.417Z,40.88
2023-03-21T14:45:28.158Z,40.88
2023-03-21T14:47:56.665Z,40.87
2023-03-21T14:50:28.522Z,40.80
2023-03-21T14:52:56.544Z,40.81
2023-03-21T14:55:24.741Z,40.79
2023-03-21T14:57:54.788Z,40.78
2023-03-21T15:00:24.601Z,40.75
2023-03-21T15:02:57.757Z,40.80
2023-03-21T15:05:34.626Z,40.81
2023-03-21T15:08:03.174Z,40.98
2023-03-21T15:10:32.269Z,40.99
2023-03-21T15:13:20.690Z,41.07
2023-03-21T15:15:50.061Z,41.22
2023-03-21T15:18:20.971Z,41.36
2023-03-21T15:20:54.978Z,41.73
2023-03-21T15:23:38.385Z,42.51
2023-03-21T15:26:06.445Z,43.25
2023-03-21T15:28:34.733Z,44.23
2023-03-21T15:31:02.844Z,45.06
2023-03-21T15:33:32.365Z,46.02
2023-03-21T15:36:00.701Z,47.16
2023-03-21T15:38:45.308Z,48.01
2023-03-21T15:41:19.923Z,48.57
2023-03-21T15:43:48.489Z,49.11
2023-03-21T15:46:19.163Z,49.85
2023-03-21T15:48:47.210Z,50.31
2023-03-21T15:51:21.753Z,50.77
2023-03-21T15:53:51.629Z,51.10
2023-03-21T15:56:21.622Z,51.32
2023-03-21T15:58:51.849Z,51.56
2023-03-21T16:01:21.011Z,51.94
2023-03-21T16:03:55.160Z,52.35
2023-03-21T16:06:29.959Z,53.07
2023-03-21T16:09:04.073Z,53.52
2023-03-21T16:11:39.967Z,54.16
2023-03-21T16:14:08.339Z,54.84
2023-03-21T16:16:36.271Z,55.46
2023-03-21T16:19:09.567Z,55.99
2023-03-21T16:21:40.333Z,56.75
2023-03-21T16:24:10.444Z,57.52
2023-03-21T16:26:42.731Z,58.23
2023-03-21T16:29:12.157Z,58.92
2023-03-21T16:31:40.550Z,59.49
2023-03-21T16:34:08.809Z,60.10
2023-03-21T16:36:38.257Z,60.42
2023-03-21T16:39:32.342Z,60.84
2023-03-21T16:42:00.767Z,61.07
2023-03-21T16:44:33.946Z,61.41
2023-03-21T16:47:02.609Z,61.64
2023-03-21T16:49:31.172Z,61.92
2023-03-21T16:52:01.485Z,62.12
2023-03-21T16:54:29.914Z,62.27
2023-03-21T16:56:59.598Z,62.42
2023-03-21T16:59:27.556Z,62.54
2023-03-21T17:01:56.061Z,62.58
2023-03-21T17:04:24.981Z,62.55
2023-03-21T17:06:54.467Z,62.89
2023-03-21T17:09:23.360Z,63.30
2023-03-21T17:11:52.689Z,63.46
2023-03-21T17:14:23.222Z,63.58
2023-03-21T17:16:51.282Z,63.74
2023-03-21T17:19:24.058Z,63.89
2023-03-21T17:21:52.245Z,63.95
2023-03-21T17:24:20.198Z,64.00
2023-03-21T17:26:49.068Z,63.97
2023-03-21T17:29:17.127Z,63.90
2023-03-21T17:31:47.534Z,63.70
2023-03-21T17:34:15.974Z,63.58
2023-03-21T17:36:44.681Z,63.50
2023-03-21T17:39:20.178Z,63.57
2023-03-21T17:41:48.931Z,63.67
2023-03-21T17:44:16.961Z,63.79
2023-03-21T17:46:45.117Z,63.90
2023-03-21T17:49:14.940Z,63.79
2023-03-21T17:51:43.480Z,63.67
2023-03-21T17:54:11.781Z,63.47
2023-03-21T17:56:42.623Z,62.91
2023-03-21T17:59:12.101Z,62.42
2023-03-21T18:01:40.790Z,62.11
2023-03-21T18:04:08.970Z,61.95
2023-03-21T18:06:37.961Z,61.81
2023-03-21T18:09:11.734Z,61.97
2023-03-21T18:11:40.316Z,61.96
2023-03-21T18:14:17.199Z,61.93
2023-03-21T18:16:47.065Z,62.09
2023-03-21T18:19:15.710Z,62.13
2023-03-21T18:21:47.662Z,62.13
2023-03-21T18:24:16.010Z,62.16
2023-03-21T18:26:44.318Z,62.01
2023-03-21T18:32:06.803Z,61.68
2023-03-21T18:34:36.847Z,61.45
2023-03-21T18:37:08.147Z,61.23
2023-03-21T18:39:36.502Z,61.12
2023-03-21T18:42:05.372Z,61.00
2023-03-21T18:44:38.869Z,60.81
2023-03-21T18:47:07.629Z,60.77
2023-03-21T18:52:29.277Z,60.74
2023-03-21T18:54:58.291Z,60.65
2023-03-21T18:57:41.706Z,60.63
2023-03-21T19:00:17.363Z,60.55
2023-03-21T19:02:48.083Z,60.52
2023-03-21T19:05:22.745Z,60.54
2023-03-21T19:07:51.737Z,60.56
2023-03-21T19:10:20.901Z,60.49
2023-03-21T19:12:52.585Z,60.47
2023-03-21T19:15:22.108Z,60.43
2023-03-21T19:20:45.468Z,60.55
2023-03-21T19:23:16.270Z,60.58
2023-03-21T19:25:45.502Z,60.58
2023-03-21T19:28:15.267Z,60.64
2023-03-21T19:30:49.816Z,60.77
2023-03-21T19:33:20.260Z,60.80
2023-03-21T19:35:49.297Z,60.76
2023-03-21T19:38:17.595Z,60.73
2023-03-21T19:40:46.486Z,60.73
2023-03-21T19:43:32.215Z,60.76
2023-03-21T19:46:03.078Z,60.67
2023-03-21T19:48:32.203Z,60.68
2023-03-21T19:51:26.942Z,60.59
2023-03-21T19:53:53.984Z,60.60
2023-03-21T19:56:26.238Z,60.69
2023-03-21T19:58:55.657Z,60.66
2023-03-21T20:01:24.488Z,60.73
2023-03-21T20:03:53.217Z,60.78
2023-03-21T20:06:23.535Z,60.79
2023-03-21T20:11:40.754Z,60.92
2023-03-21T20:14:09.375Z,60.94
2023-03-21T20:16:37.683Z,61.04
2023-03-21T20:19:09.102Z,61.16
2023-03-21T20:21:48.573Z,61.16
2023-03-21T20:24:20.338Z,61.20
2023-03-21T20:26:49.689Z,61.29
2023-03-21T20:32:06.876Z,61.33
2023-03-21T20:34:36.853Z,61.38
2023-03-21T20:37:08.219Z,61.34
2023-03-21T20:39:36.662Z,61.36
2023-03-21T20:42:05.385Z,61.41
2023-03-21T20:44:56.041Z,61.45
2023-03-21T20:47:22.500Z,61.51
2023-03-21T20:49:52.259Z,61.53
2023-03-21T20:55:09.306Z,61.38
2023-03-21T20:57:40.805Z,61.35
2023-03-21T21:00:13.735Z,61.33
2023-03-21T21:02:44.792Z,61.26
2023-03-21T21:05:32.961Z,61.25
2023-03-21T21:08:02.970Z,61.23
2023-03-21T21:10:33.488Z,61.22
2023-03-21T21:13:02.896Z,61.16
2023-03-21T21:15:37.580Z,61.22
2023-03-21T21:18:08.528Z,61.22
2023-03-21T21:20:37.204Z,61.19
2023-03-21T21:23:09.534Z,61.21
2023-03-21T21:25:40.188Z,61.31
2023-03-21T21:28:09.716Z,61.33
2023-03-21T21:30:42.799Z,61.40
2023-03-21T21:33:14.591Z,61.39
2023-03-21T21:35:48.144Z,61.34
2023-03-21T21:38:17.882Z,61.51
2023-03-21T21:40:49.852Z,61.61
2023-03-21T21:43:19.698Z,61.54
2023-03-21T21:45:48.642Z,61.68
2023-03-21T21:48:20.986Z,61.70
2023-03-21T21:50:49.648Z,61.74
2023-03-21T21:53:19.211Z,61.75
2023-03-21T21:55:48.824Z,61.87
2023-03-21T21:58:18.781Z,61.90
2023-03-21T22:00:47.069Z,61.97
2023-03-21T22:03:15.405Z,62.10
2023-03-21T22:05:47.906Z,62.04
2023-03-21T22:08:19.447Z,62.05
2023-03-21T22:10:47.535Z,62.09
2023-03-21T22:13:15.754Z,62.00
2023-03-21T22:15:46.038Z,61.93
2023-03-21T22:18:16.193Z,61.92
2023-03-21T22:20:44.506Z,61.87
2023-03-21T22:23:12.602Z,61.88
2023-03-21T22:25:40.635Z,61.88
2023-03-21T22:28:08.698Z,61.83
2023-03-21T22:30:37.996Z,61.83
2023-03-21T22:33:09.968Z,61.88
2023-03-21T22:35:42.275Z,61.89
2023-03-21T22:38:12.439Z,61.97
2023-03-21T22:40:40.636Z,62.02
2023-03-21T22:43:10.662Z,61.94
2023-03-21T22:45:39.103Z,61.99
2023-03-21T22:48:13.557Z,62.07
2023-03-21T22:50:42.207Z,62.01
2023-03-21T22:53:10.312Z,62.05
2023-03-21T22:55:38.649Z,62.17
2023-03-21T22:58:09.214Z,62.15
2023-03-21T23:00:37.842Z,62.20
2023-03-21T23:03:06.514Z,62.30
2023-03-21T23:05:39.001Z,62.30
2023-03-21T23:08:07.821Z,62.42
2023-03-21T23:10:38.393Z,62.50
2023-03-21T23:13:06.879Z,62.57
2023-03-21T23:15:40.796Z,62.66
2023-03-21T23:18:10.304Z,62.85
2023-03-21T23:20:38.589Z,62.82
2023-03-21T23:23:08.038Z,62.94
2023-03-21T23:25:39.545Z,62.97
2023-03-21T23:28:08.917Z,63.06
2023-03-21T23:30:37.744Z,63.15
2023-03-21T23:33:06.058Z,63.25
2023-03-21T23:35:35.638Z,63.26
2023-03-21T23:38:04.347Z,63.33
2023-03-21T23:40:32.502Z,63.34
2023-03-21T23:43:01.089Z,63.46
2023-03-21T23:45:29.501Z,63.56
2023-03-21T23:47:59.125Z,63.57
2023-03-21T23:50:27.420Z,63.69
2023-03-21T23:52:58.476Z,63.66
2023-03-21T23:55:27.440Z,63.66
2023-03-21T23:57:59.304Z,63.75
